createdAt,value
2018-06-01T00:01:12.276Z,21.44
2018-06-01T00:03:46.184Z,21.46
2018-06-01T00:06:19.807Z,21.38
2018-06-01T00:08:53.400Z,21.43
2018-06-01T00:11:27.168Z,21.46
2018-06-01T00:14:00.887Z,21.38
2018-06-01T00:16:34.519Z,21.41
2018-06-01T00:19:08.113Z,21.37
2018-06-01T00:21:41.725Z,21.48
2018-06-01T00:24:15.555Z,21.45
2018-06-01T00:26:49.151Z,21.53
2018-06-01T00:29:22.757Z,21.52
2018-06-01T00:31:56.385Z,21.48
2018-06-01T00:34:30.078Z,21.42
2018-06-01T00:37:03.615Z,21.54
2018-06-01T00:39:37.229Z,21.58
2018-06-01T00:42:10.850Z,21.58
2018-06-01T00:44:44.596Z,21.56
2018-06-01T00:47:18.240Z,21.42
2018-06-01T00:49:51.796Z,21.37
2018-06-01T00:52:25.789Z,21.39
2018-06-01T00:55:11.044Z,21.26
2018-06-01T00:57:44.704Z,21.16
2018-06-01T01:00:18.258Z,21.11
2018-06-01T01:02:51.847Z,21.11
2018-06-01T01:05:25.345Z,21.08
2018-06-01T01:07:59.123Z,21.14
2018-06-01T01:10:32.716Z,21.14
2018-06-01T01:13:06.436Z,21.13
2018-06-01T01:15:40.124Z,21.21
2018-06-01T01:18:13.764Z,21.18
2018-06-01T01:20:47.592Z,21.19
2018-06-01T01:23:21.166Z,21.22
2018-06-01T01:25:54.677Z,21.26
2018-06-01T01:28:28.248Z,21.25
2018-06-01T01:31:01.836Z,21.32
2018-06-01T01:33:35.425Z,21.31
2018-06-01T01:36:08.960Z,21.38
2018-06-01T01:38:42.652Z,21.37
2018-06-01T01:41:16.484Z,21.27
2018-06-01T01:43:50.075Z,21.40
2018-06-01T01:46:23.697Z,21.46
2018-06-01T01:48:57.540Z,21.52
2018-06-01T01:51:31.195Z,21.59
2018-06-01T01:54:04.788Z,21.46
2018-06-01T01:56:38.478Z,21.31
2018-06-01T01:59:12.081Z,21.31
2018-06-01T02:01:45.732Z,21.34
2018-06-01T02:04:19.277Z,21.23
2018-06-01T02:06:52.815Z,21.21
2018-06-01T02:09:26.608Z,21.18
2018-06-01T02:12:00.122Z,21.12
2018-06-01T02:14:33.860Z,21.10
2018-06-01T02:17:07.416Z,21.20
2018-06-01T02:19:41.031Z,21.29
2018-06-01T02:22:14.805Z,21.39
2018-06-01T02:24:48.520Z,21.26
2018-06-01T02:27:22.133Z,21.28
2018-06-01T02:29:55.753Z,21.35
2018-06-01T02:32:29.317Z,21.30
2018-06-01T02:35:03.007Z,21.29
2018-06-01T02:37:36.818Z,21.38
2018-06-01T02:40:10.583Z,21.32
2018-06-01T02:42:44.141Z,21.25
2018-06-01T02:45:17.756Z,21.44
2018-06-01T02:47:51.276Z,21.25
2018-06-01T02:50:25.115Z,20.85
2018-06-01T02:52:58.773Z,20.97
2018-06-01T02:55:32.322Z,20.96
2018-06-01T02:58:06.160Z,20.89
2018-06-01T03:00:39.948Z,21.03
2018-06-01T03:03:13.627Z,20.97
2018-06-01T03:05:47.400Z,21.03
2018-06-01T03:08:20.971Z,20.93
2018-06-01T03:10:54.560Z,20.96
2018-06-01T03:13:28.302Z,20.90
2018-06-01T03:16:01.948Z,21.31
2018-06-01T03:18:35.740Z,20.97
2018-06-01T03:21:10.162Z,21.04
2018-06-01T03:23:43.830Z,21.05
2018-06-01T03:26:17.628Z,20.93
2018-06-01T03:28:51.400Z,21.09
2018-06-01T03:31:25.009Z,21.07
2018-06-01T03:33:58.665Z,21.22
2018-06-01T03:36:32.200Z,21.25
2018-06-01T03:39:05.868Z,21.29
2018-06-01T03:41:39.456Z,21.16
2018-06-01T03:44:13.204Z,21.24
2018-06-01T03:46:46.909Z,21.05
2018-06-01T03:49:20.697Z,20.94
2018-06-01T03:51:54.558Z,21.09
2018-06-01T03:54:28.325Z,21.19
2018-06-01T03:57:02.117Z,21.03
2018-06-01T03:59:35.853Z,21.10
2018-06-01T04:02:09.413Z,21.17
2018-06-01T04:04:43.193Z,21.27
2018-06-01T04:07:17.030Z,21.24
2018-06-01T04:09:50.715Z,21.14
2018-06-01T04:12:24.449Z,21.21
2018-06-01T04:14:58.161Z,22.84
2018-06-01T04:17:31.908Z,24.74
2018-06-01T04:20:05.617Z,23.24
2018-06-01T04:22:39.222Z,23.52
2018-06-01T04:25:13.000Z,23.96
2018-06-01T04:27:46.761Z,24.59
2018-06-01T04:30:20.454Z,24.56
2018-06-01T04:32:54.103Z,24.64
2018-06-01T04:35:27.879Z,24.21
2018-06-01T04:38:01.532Z,19.84
2018-06-01T04:40:35.177Z,38.14
2018-06-01T04:43:08.929Z,36.27
2018-06-01T04:45:42.661Z,46.41
2018-06-01T04:48:16.385Z,49.31
2018-06-01T04:50:50.017Z,45.53
2018-06-01T04:53:23.741Z,42.73
2018-06-01T04:55:57.527Z,25.35
2018-06-01T04:58:31.192Z,24.49
2018-06-01T05:01:04.797Z,23.02
2018-06-01T05:03:38.522Z,23.45
2018-06-01T05:06:12.449Z,23.13
2018-06-01T05:08:46.211Z,23.37
2018-06-01T05:11:19.961Z,23.54
2018-06-01T05:13:53.870Z,23.67
2018-06-01T05:16:27.590Z,24.04
2018-06-01T05:19:01.431Z,23.68
2018-06-01T05:21:35.109Z,23.90
2018-06-01T05:24:08.740Z,23.91
2018-06-01T05:26:42.497Z,24.19
2018-06-01T05:29:16.272Z,23.61
2018-06-01T05:31:49.984Z,23.21
2018-06-01T05:34:23.767Z,23.79
2018-06-01T05:36:57.553Z,23.97
2018-06-01T05:39:31.289Z,23.80
2018-06-01T05:42:05.107Z,23.75
2018-06-01T05:44:38.769Z,23.84
2018-06-01T05:47:12.438Z,23.66
2018-06-01T05:49:46.145Z,23.91
2018-06-01T05:52:19.796Z,23.67
2018-06-01T05:54:53.414Z,23.42
2018-06-01T05:57:27.025Z,23.54
2018-06-01T06:00:00.658Z,22.86
2018-06-01T06:02:34.434Z,23.54
2018-06-01T06:05:08.196Z,23.69
2018-06-01T06:07:41.798Z,23.85
2018-06-01T06:10:15.414Z,23.39
2018-06-01T06:12:49.147Z,22.90
2018-06-01T06:15:22.893Z,23.36
2018-06-01T06:17:56.540Z,23.08
2018-06-01T06:20:30.366Z,23.30
2018-06-01T06:23:03.996Z,23.08
2018-06-01T06:25:38.199Z,23.61
2018-06-01T06:28:11.985Z,23.10
2018-06-01T06:30:45.617Z,23.49
2018-06-01T06:33:19.380Z,23.33
2018-06-01T06:35:53.111Z,23.73
2018-06-01T06:38:26.898Z,23.31
2018-06-01T06:41:00.627Z,23.49
2018-06-01T06:43:34.476Z,23.03
2018-06-01T06:46:08.287Z,22.75
2018-06-01T06:48:41.964Z,22.79
2018-06-01T06:51:15.733Z,23.36
2018-06-01T06:53:49.452Z,22.75
2018-06-01T06:56:23.139Z,22.86
2018-06-01T06:58:56.885Z,23.19
2018-06-01T07:01:30.552Z,23.54
2018-06-01T07:04:04.272Z,23.32
2018-06-01T07:06:38.143Z,23.91
2018-06-01T07:09:11.853Z,24.38
2018-06-01T07:11:45.598Z,24.08
2018-06-01T07:14:19.340Z,24.07
2018-06-01T07:16:53.074Z,24.16
2018-06-01T07:19:26.825Z,24.67
2018-06-01T07:22:00.461Z,24.27
2018-06-01T07:24:34.016Z,23.82
2018-06-01T07:27:07.800Z,24.41
2018-06-01T07:29:41.527Z,23.89
2018-06-01T07:32:15.288Z,24.13
2018-06-01T07:34:49.012Z,24.58
2018-06-01T07:37:22.802Z,24.15
2018-06-01T07:39:56.420Z,24.89
2018-06-01T07:42:30.117Z,25.02
2018-06-01T07:45:04.049Z,25.05
2018-06-01T07:47:37.640Z,24.37
2018-06-01T07:50:11.389Z,24.74
2018-06-01T07:52:45.009Z,24.81
2018-06-01T07:55:18.735Z,24.98
2018-06-01T07:57:52.434Z,24.84
2018-06-01T08:00:26.213Z,24.83
2018-06-01T08:02:59.909Z,24.90
2018-06-01T08:05:33.632Z,25.12
2018-06-01T08:08:07.629Z,24.82
2018-06-01T08:10:41.271Z,24.96
2018-06-01T08:13:15.712Z,24.85
2018-06-01T08:15:50.241Z,25.00
2018-06-01T08:18:23.878Z,24.01
2018-06-01T08:20:57.545Z,24.20
2018-06-01T08:23:31.248Z,24.93
2018-06-01T08:26:04.852Z,25.34
2018-06-01T08:28:38.462Z,25.41
2018-06-01T08:31:12.089Z,25.34
2018-06-01T08:33:45.818Z,25.34
2018-06-01T08:36:19.557Z,25.53
2018-06-01T08:38:53.141Z,25.57
2018-06-01T08:41:26.840Z,25.85
2018-06-01T08:44:00.658Z,25.71
2018-06-01T08:46:34.306Z,24.76
2018-06-01T08:49:08.001Z,24.87
2018-06-01T08:51:41.768Z,25.16
2018-06-01T08:54:15.366Z,24.70
2018-06-01T08:56:49.098Z,25.05
2018-06-01T08:59:22.696Z,25.25
2018-06-01T09:01:56.381Z,26.31
2018-06-01T09:04:30.002Z,25.79
2018-06-01T09:07:03.600Z,26.22
2018-06-01T09:09:37.195Z,26.40
2018-06-01T09:12:10.924Z,26.27
2018-06-01T09:14:44.504Z,26.31
2018-06-01T09:17:18.227Z,26.13
2018-06-01T09:19:52.648Z,26.03
2018-06-01T09:22:26.329Z,26.63
2018-06-01T09:24:59.942Z,26.74
2018-06-01T09:27:33.705Z,26.28
2018-06-01T09:30:07.536Z,26.48
2018-06-01T09:32:41.336Z,25.70
2018-06-01T09:35:14.993Z,25.85
2018-06-01T09:37:48.740Z,25.56
2018-06-01T09:40:22.310Z,25.21
2018-06-01T09:42:55.965Z,26.09
2018-06-01T09:45:29.744Z,26.60
2018-06-01T09:48:03.299Z,25.68
2018-06-01T09:50:36.893Z,26.19
2018-06-01T09:53:10.509Z,26.17
2018-06-01T09:55:44.048Z,25.96
2018-06-01T09:58:17.628Z,25.40
2018-06-01T10:00:56.976Z,25.42
2018-06-01T10:03:30.644Z,25.07
2018-06-01T10:06:04.424Z,25.73
2018-06-01T10:08:37.938Z,26.10
2018-06-01T10:11:11.715Z,26.24
2018-06-01T10:13:45.389Z,25.57
2018-06-01T10:16:18.929Z,26.59
2018-06-01T10:18:52.747Z,26.41
2018-06-01T10:21:26.473Z,26.66
2018-06-01T10:24:00.021Z,25.93
2018-06-01T10:26:33.719Z,26.19
2018-06-01T10:29:07.212Z,26.24
2018-06-01T10:31:40.749Z,26.20
2018-06-01T10:34:14.318Z,25.76
2018-06-01T10:36:47.989Z,25.42
2018-06-01T10:39:21.624Z,25.86
2018-06-01T10:41:55.269Z,25.43
2018-06-01T10:44:28.954Z,25.28
2018-06-01T10:47:02.641Z,25.53
2018-06-01T10:49:36.303Z,26.10
2018-06-01T10:52:09.871Z,26.52
2018-06-01T10:54:43.623Z,26.38
2018-06-01T10:57:17.344Z,26.91
2018-06-01T10:59:51.049Z,26.60
2018-06-01T11:02:24.772Z,26.91
2018-06-01T11:04:58.309Z,26.49
2018-06-01T11:07:32.072Z,26.52
2018-06-01T11:10:05.663Z,26.84
2018-06-01T11:12:39.328Z,26.22
2018-06-01T11:15:13.880Z,26.34
2018-06-01T11:17:47.467Z,26.39
2018-06-01T11:20:21.033Z,26.14
2018-06-01T11:22:54.564Z,26.23
2018-06-01T11:25:28.108Z,26.49
2018-06-01T11:28:01.704Z,26.59
2018-06-01T11:30:35.346Z,26.93
2018-06-01T11:33:09.164Z,27.22
2018-06-01T11:35:42.705Z,27.24
2018-06-01T11:38:16.255Z,27.51
2018-06-01T11:40:49.955Z,27.11
2018-06-01T11:43:23.539Z,27.13
2018-06-01T11:45:57.067Z,27.12
2018-06-01T11:48:30.903Z,27.10
2018-06-01T11:51:04.513Z,26.82
2018-06-01T11:53:38.296Z,26.99
2018-06-01T11:56:11.878Z,26.71
2018-06-01T11:58:45.660Z,26.90
2018-06-01T12:01:19.208Z,27.29
2018-06-01T12:03:52.993Z,26.59
2018-06-01T12:06:26.745Z,27.09
2018-06-01T12:09:00.292Z,26.99
2018-06-01T12:11:33.966Z,26.91
2018-06-01T12:14:07.656Z,26.51
2018-06-01T12:16:41.194Z,26.32
2018-06-01T12:19:14.790Z,26.81
2018-06-01T12:21:48.460Z,26.71
2018-06-01T12:24:21.969Z,26.96
2018-06-01T12:26:55.633Z,27.00
2018-06-01T12:29:29.187Z,26.53
2018-06-01T12:32:02.927Z,26.69
2018-06-01T12:34:36.640Z,26.73
2018-06-01T12:37:10.569Z,26.61
2018-06-01T12:39:44.080Z,26.24
2018-06-01T12:42:17.687Z,26.45
2018-06-01T12:44:51.245Z,26.85
2018-06-01T12:47:24.776Z,26.74
2018-06-01T12:49:58.388Z,26.66
2018-06-01T12:52:32.213Z,26.66
2018-06-01T12:55:05.881Z,26.91
2018-06-01T12:57:39.524Z,26.97
2018-06-01T13:00:13.061Z,26.89
2018-06-01T13:02:46.778Z,26.58
2018-06-01T13:05:20.323Z,26.79
2018-06-01T13:07:54.058Z,26.27
2018-06-01T13:10:27.816Z,26.27
2018-06-01T13:13:01.474Z,26.69
2018-06-01T13:15:35.072Z,26.47
2018-06-01T13:18:08.669Z,26.55
2018-06-01T13:20:42.664Z,26.18
2018-06-01T13:23:16.152Z,25.96
2018-06-01T13:25:50.208Z,32.27
2018-06-01T13:28:23.898Z,35.04
2018-06-01T13:30:57.443Z,27.36
2018-06-01T13:33:31.131Z,20.49
2018-06-01T13:36:04.679Z,19.78
2018-06-01T13:38:38.341Z,30.92
2018-06-01T13:41:11.921Z,22.39
2018-06-01T13:43:45.580Z,22.69
2018-06-01T13:46:19.213Z,31.81
2018-06-01T13:48:52.978Z,23.67
2018-06-01T13:51:26.639Z,19.85
2018-06-01T13:54:00.286Z,19.22
2018-06-01T13:56:33.873Z,19.14
2018-06-01T13:59:07.610Z,23.35
2018-06-01T14:01:41.224Z,22.71
2018-06-01T14:04:14.945Z,22.28
2018-06-01T14:06:48.691Z,22.81
2018-06-01T14:09:22.384Z,22.95
2018-06-01T14:11:55.927Z,22.68
2018-06-01T14:14:29.467Z,22.86
2018-06-01T14:17:03.024Z,23.29
2018-06-01T14:19:36.765Z,22.70
2018-06-01T14:22:10.511Z,22.72
2018-06-01T14:24:44.196Z,20.56
2018-06-01T14:27:17.867Z,19.60
2018-06-01T14:29:51.490Z,19.48
2018-06-01T14:32:25.008Z,19.38
2018-06-01T14:34:58.660Z,19.34
2018-06-01T14:37:32.364Z,19.28
2018-06-01T14:40:06.153Z,19.18
2018-06-01T14:42:39.931Z,19.05
2018-06-01T14:45:13.484Z,19.17
2018-06-01T14:47:47.239Z,19.21
2018-06-01T14:50:20.792Z,19.13
2018-06-01T14:52:54.418Z,19.22
2018-06-01T14:55:28.171Z,19.23
2018-06-01T14:58:01.804Z,19.04
2018-06-01T15:00:35.458Z,19.01
2018-06-01T15:03:09.197Z,18.98
2018-06-01T15:05:42.733Z,18.90
2018-06-01T15:08:16.339Z,18.88
2018-06-01T15:10:50.027Z,18.86
2018-06-01T15:13:23.583Z,18.79
2018-06-01T15:15:57.481Z,18.76
2018-06-01T15:18:31.080Z,18.52
2018-06-01T15:21:04.689Z,18.68
2018-06-01T15:23:38.340Z,20.94
2018-06-01T15:26:11.892Z,20.70
2018-06-01T15:28:45.584Z,20.60
2018-06-01T15:31:19.337Z,20.45
2018-06-01T15:33:52.979Z,20.46
2018-06-01T15:36:26.821Z,20.05
2018-06-01T15:39:00.502Z,20.46
2018-06-01T15:41:34.065Z,20.43
2018-06-01T15:44:07.847Z,20.09
2018-06-01T15:46:41.567Z,20.12
2018-06-01T15:49:15.135Z,20.64
2018-06-01T15:51:48.688Z,20.46
2018-06-01T15:54:22.449Z,20.64
2018-06-01T15:56:56.247Z,20.53
2018-06-01T15:59:29.814Z,20.61
2018-06-01T16:02:03.500Z,20.74
2018-06-01T16:04:37.033Z,20.70
2018-06-01T16:07:10.857Z,20.85
2018-06-01T16:09:44.625Z,20.74
2018-06-01T16:12:18.440Z,20.66
2018-06-01T16:14:51.999Z,20.51
2018-06-01T16:17:25.713Z,20.64
2018-06-01T16:19:59.441Z,20.76
2018-06-01T16:22:33.052Z,20.60
2018-06-01T16:25:06.609Z,20.54
2018-06-01T16:27:40.204Z,20.57
2018-06-01T16:30:13.949Z,20.53
2018-06-01T16:32:47.556Z,20.37
2018-06-01T16:35:21.494Z,20.60
2018-06-01T16:37:55.222Z,20.44
2018-06-01T16:40:28.848Z,20.51
2018-06-01T16:43:02.672Z,20.48
2018-06-01T16:45:36.216Z,20.07
2018-06-01T16:48:09.760Z,20.34
2018-06-01T16:50:43.615Z,20.41
2018-06-01T16:53:17.188Z,20.13
2018-06-01T16:55:50.841Z,20.31
2018-06-01T16:58:24.488Z,20.37
2018-06-01T17:00:58.029Z,20.50
2018-06-01T17:03:31.833Z,20.40
2018-06-01T17:06:05.465Z,20.11
2018-06-01T17:08:39.192Z,19.82
2018-06-01T17:11:12.756Z,20.20
2018-06-01T17:13:46.414Z,19.95
2018-06-01T17:16:20.093Z,20.22
2018-06-01T17:18:53.749Z,20.13
2018-06-01T17:21:27.548Z,20.04
2018-06-01T17:24:01.099Z,20.29
2018-06-01T17:26:34.651Z,20.34
2018-06-01T17:29:08.191Z,20.16
2018-06-01T17:31:41.832Z,20.24
2018-06-01T17:34:15.669Z,20.12
2018-06-01T17:36:49.366Z,19.98
2018-06-01T17:39:23.044Z,20.08
2018-06-01T17:41:56.576Z,20.20
2018-06-01T17:44:30.264Z,19.95
2018-06-01T17:47:03.854Z,20.11
2018-06-01T17:49:37.657Z,20.13
2018-06-01T17:52:11.379Z,20.03
2018-06-01T17:54:45.040Z,20.07
2018-06-01T17:57:18.572Z,20.14
2018-06-01T17:59:52.077Z,19.95
2018-06-01T18:02:25.636Z,20.22
2018-06-01T18:04:59.218Z,20.05
2018-06-01T18:07:32.999Z,20.00
2018-06-01T18:10:06.552Z,20.09
2018-06-01T18:12:40.160Z,19.91
2018-06-01T18:15:13.726Z,20.09
2018-06-01T18:17:47.337Z,20.05
2018-06-01T18:20:21.132Z,20.18
2018-06-01T18:22:54.691Z,20.08
2018-06-01T18:25:28.268Z,19.79
2018-06-01T18:28:01.813Z,19.61
2018-06-01T18:30:35.569Z,19.67
2018-06-01T18:33:09.172Z,19.54
2018-06-01T18:35:42.717Z,19.66
2018-06-01T18:38:16.383Z,19.51
2018-06-01T18:40:49.999Z,19.24
2018-06-01T18:43:23.560Z,19.25
2018-06-01T18:45:57.243Z,19.44
2018-06-01T18:48:30.823Z,19.43
2018-06-01T18:51:04.578Z,19.43
2018-06-01T18:53:38.285Z,19.95
2018-06-01T18:56:12.042Z,19.59
2018-06-01T18:58:45.596Z,19.72
2018-06-01T19:01:19.194Z,19.78
2018-06-01T19:03:52.865Z,19.54
2018-06-01T19:06:26.616Z,19.56
2018-06-01T19:09:00.273Z,19.55
2018-06-01T19:11:33.891Z,19.36
2018-06-01T19:14:07.744Z,19.70
2018-06-01T19:16:41.295Z,19.54
2018-06-01T19:19:15.063Z,19.19
2018-06-01T19:21:48.813Z,19.35
2018-06-01T19:24:22.556Z,18.90
2018-06-01T19:26:56.092Z,18.80
2018-06-01T19:29:29.661Z,18.93
2018-06-01T19:32:03.416Z,19.03
2018-06-01T19:34:37.201Z,19.06
2018-06-01T19:37:10.977Z,18.97
2018-06-01T19:39:44.552Z,19.43
2018-06-01T19:42:18.154Z,19.51
2018-06-01T19:44:51.682Z,19.30
2018-06-01T19:47:25.239Z,19.10
2018-06-01T19:49:58.888Z,19.03
2018-06-01T19:52:32.545Z,18.98
2018-06-01T19:55:06.187Z,19.02
2018-06-01T19:57:39.790Z,18.98
2018-06-01T20:00:13.576Z,19.25
2018-06-01T20:02:47.280Z,19.57
2018-06-01T20:05:20.814Z,19.71
2018-06-01T20:07:54.407Z,19.21
2018-06-01T20:10:27.937Z,19.57
2018-06-01T20:13:01.557Z,19.59
2018-06-01T20:15:35.199Z,19.68
2018-06-01T20:18:08.867Z,19.67
2018-06-01T20:20:42.556Z,19.85
2018-06-01T20:23:16.377Z,19.47
2018-06-01T20:25:50.844Z,19.72
2018-06-01T20:28:24.450Z,19.62
2018-06-01T20:30:58.235Z,19.57
2018-06-01T20:33:32.034Z,19.53
2018-06-01T20:36:05.849Z,19.48
2018-06-01T20:38:39.400Z,19.56
2018-06-01T20:41:13.058Z,19.29
2018-06-01T20:43:46.731Z,19.09
2018-06-01T20:46:20.276Z,19.33
2018-06-01T20:48:53.832Z,19.39
2018-06-01T20:51:27.457Z,19.07
2018-06-01T20:54:00.973Z,19.19
2018-06-01T20:56:34.520Z,19.25
2018-06-01T20:59:08.168Z,19.24
2018-06-01T21:01:41.847Z,19.26
2018-06-01T21:04:15.628Z,19.33
2018-06-01T21:06:49.819Z,19.29
2018-06-01T21:09:23.432Z,18.90
2018-06-01T21:11:57.059Z,18.89
2018-06-01T21:14:30.616Z,19.26
2018-06-01T21:17:04.256Z,19.24
2018-06-01T21:19:37.935Z,19.17
2018-06-01T21:22:11.690Z,19.26
2018-06-01T21:24:45.261Z,19.40
2018-06-01T21:27:18.981Z,19.28
2018-06-01T21:29:52.622Z,19.42
2018-06-01T21:32:26.195Z,19.38
2018-06-01T21:34:59.849Z,19.33
2018-06-01T21:37:33.379Z,19.26
2018-06-01T21:40:07.028Z,19.07
2018-06-01T21:42:40.612Z,18.91
2018-06-01T21:45:14.270Z,18.81
2018-06-01T21:47:47.792Z,19.13
2018-06-01T21:50:21.415Z,19.20
2018-06-01T21:52:55.403Z,19.33
2018-06-01T21:55:29.168Z,19.24
2018-06-01T21:58:02.738Z,19.33
2018-06-01T22:00:36.324Z,19.34
2018-06-01T22:03:10.224Z,19.15
2018-06-01T22:05:44.664Z,19.26
2018-06-01T22:08:18.411Z,19.38
2018-06-01T22:10:51.960Z,19.20
2018-06-01T22:13:25.485Z,19.21
2018-06-01T22:15:59.215Z,19.36
2018-06-01T22:18:32.705Z,19.28
2018-06-01T22:21:06.275Z,19.33
2018-06-01T22:23:39.859Z,19.37
2018-06-01T22:26:13.388Z,19.31
2018-06-01T22:28:46.964Z,19.21
2018-06-01T22:31:20.488Z,19.15
2018-06-01T22:33:54.034Z,19.04
2018-06-01T22:36:27.629Z,19.16
2018-06-01T22:39:01.429Z,19.24
2018-06-01T22:41:34.930Z,19.12
2018-06-01T22:44:08.484Z,19.08
2018-06-01T22:46:42.132Z,19.27
2018-06-01T22:49:15.691Z,19.01
2018-06-01T22:51:49.363Z,18.75
2018-06-01T22:54:22.857Z,18.98
2018-06-01T22:56:56.433Z,19.23
2018-06-01T22:59:29.928Z,19.23
2018-06-01T23:02:03.452Z,19.33
2018-06-01T23:04:37.116Z,19.16
2018-06-01T23:07:10.861Z,18.97
2018-06-01T23:09:44.435Z,18.99
2018-06-01T23:12:17.959Z,18.81
2018-06-01T23:14:51.545Z,18.66
2018-06-01T23:17:25.064Z,18.65
2018-06-01T23:19:58.661Z,18.65
2018-06-01T23:22:32.349Z,18.88
2018-06-01T23:25:06.043Z,18.67
2018-06-01T23:27:39.831Z,18.35
2018-06-01T23:30:13.489Z,18.30
2018-06-01T23:32:47.008Z,18.50
2018-06-01T23:35:20.920Z,18.76
2018-06-01T23:37:54.701Z,18.86
2018-06-01T23:40:28.425Z,19.05
2018-06-01T23:43:01.956Z,18.88
2018-06-01T23:45:35.679Z,18.66
2018-06-01T23:48:09.255Z,18.96
2018-06-01T23:50:42.888Z,19.04
2018-06-01T23:53:16.748Z,19.00
2018-06-01T23:55:51.107Z,18.87
2018-06-01T23:58:24.908Z,18.90
